sensor_id;sensor_type;location;lat;lon;timestamp;temperature;humidity
33023;DHT22;19390;51.460;5.710;2024-02-21T00:00:47;9.10;99.90
33023;DHT22;19390;51.460;5.710;2024-02-21T00:03:13;9.10;99.90
33023;DHT22;19390;51.460;5.710;2024-02-21T00:05:38;9.10;99.90
33023;DHT22;19390;51.460;5.710;2024-02-21T00:08:04;9.10;99.90
33023;DHT22;19390;51.460;5.710;2024-02-21T00:10:30;9.10;99.90
33023;DHT22;19390;51.460;5.710;2024-02-21T00:12:57;9.10;99.90
33023;DHT22;19390;51.460;5.710;2024-02-21T00:15:25;9.10;99.90
33023;DHT22;19390;51.460;5.710;2024-02-21T00:17:50;9.10;99.90
33023;DHT22;19390;51.460;5.710;2024-02-21T00:20:16;9.10;99.90
33023;DHT22;19390;51.460;5.710;2024-02-21T00:22:43;9.10;99.90
33023;DHT22;19390;51.460;5.710;2024-02-21T00:25:08;9.10;99.90
33023;DHT22;19390;51.460;5.710;2024-02-21T00:27:34;9.10;99.90
33023;DHT22;19390;51.460;5.710;2024-02-21T00:29:59;9.10;99.90
33023;DHT22;19390;51.460;5.710;2024-02-21T00:32:25;9.10;99.90
33023;DHT22;19390;51.460;5.710;2024-02-21T00:34:51;9.10;99.90
33023;DHT22;19390;51.460;5.710;2024-02-21T00:37:16;9.10;99.90
33023;DHT22;19390;51.460;5.710;2024-02-21T00:39:42;9.10;99.90
33023;DHT22;19390;51.460;5.710;2024-02-21T00:42:08;9.10;99.90
33023;DHT22;19390;51.460;5.710;2024-02-21T00:44:33;9.10;99.90
33023;DHT22;19390;51.460;5.710;2024-02-21T00:46:59;9.10;99.90
33023;DHT22;19390;51.460;5.710;2024-02-21T00:49:25;9.10;99.90
33023;DHT22;19390;51.460;5.710;2024-02-21T00:51:50;9.20;99.90
33023;DHT22;19390;51.460;5.710;2024-02-21T00:54:16;9.10;99.90
33023;DHT22;19390;51.460;5.710;2024-02-21T00:56:42;9.10;99.90
33023;DHT22;19390;51.460;5.710;2024-02-21T00:59:08;9.10;99.90
33023;DHT22;19390;51.460;5.710;2024-02-21T01:01:33;9.00;99.90
33023;DHT22;19390;51.460;5.710;2024-02-21T01:03:59;9.00;99.90
33023;DHT22;19390;51.460;5.710;2024-02-21T01:06:25;9.10;99.90
33023;DHT22;19390;51.460;5.710;2024-02-21T01:08:51;9.00;99.90
33023;DHT22;19390;51.460;5.710;2024-02-21T01:11:16;8.90;99.90
33023;DHT22;19390;51.460;5.710;2024-02-21T01:13:42;8.90;99.90
33023;DHT22;19390;51.460;5.710;2024-02-21T01:16:08;8.80;99.90
33023;DHT22;19390;51.460;5.710;2024-02-21T01:18:34;8.80;99.90
33023;DHT22;19390;51.460;5.710;2024-02-21T01:21:00;8.80;99.90
33023;DHT22;19390;51.460;5.710;2024-02-21T01:23:26;8.90;99.90
33023;DHT22;19390;51.460;5.710;2024-02-21T01:25:52;8.90;99.90
33023;DHT22;19390;51.460;5.710;2024-02-21T01:28:18;8.90;99.90
33023;DHT22;19390;51.460;5.710;2024-02-21T01:30:43;8.80;99.90
33023;DHT22;19390;51.460;5.710;2024-02-21T01:33:09;8.80;99.90
33023;DHT22;19390;51.460;5.710;2024-02-21T01:35:36;8.80;99.90
33023;DHT22;19390;51.460;5.710;2024-02-21T01:38:02;8.80;99.90
33023;DHT22;19390;51.460;5.710;2024-02-21T01:40:28;8.80;99.90
33023;DHT22;19390;51.460;5.710;2024-02-21T01:42:55;8.80;99.90
33023;DHT22;19390;51.460;5.710;2024-02-21T01:45:21;8.80;99.90
33023;DHT22;19390;51.460;5.710;2024-02-21T01:47:47;8.70;99.90
33023;DHT22;19390;51.460;5.710;2024-02-21T01:50:15;8.70;99.90
33023;DHT22;19390;51.460;5.710;2024-02-21T01:52:42;8.70;99.90
33023;DHT22;19390;51.460;5.710;2024-02-21T01:55:10;8.60;99.90
33023;DHT22;19390;51.460;5.710;2024-02-21T01:57:36;8.70;99.90
33023;DHT22;19390;51.460;5.710;2024-02-21T02:00:02;8.70;99.90
33023;DHT22;19390;51.460;5.710;2024-02-21T02:02:29;8.70;99.90
33023;DHT22;19390;51.460;5.710;2024-02-21T02:04:55;8.70;99.90
33023;DHT22;19390;51.460;5.710;2024-02-21T02:07:21;8.70;99.90
33023;DHT22;19390;51.460;5.710;2024-02-21T02:09:47;8.70;99.90
33023;DHT22;19390;51.460;5.710;2024-02-21T02:12:12;8.70;99.90
33023;DHT22;19390;51.460;5.710;2024-02-21T02:14:38;8.80;99.90
33023;DHT22;19390;51.460;5.710;2024-02-21T02:17:05;8.80;99.90
33023;DHT22;19390;51.460;5.710;2024-02-21T02:19:30;8.80;99.90
33023;DHT22;19390;51.460;5.710;2024-02-21T02:22:03;8.80;99.90
33023;DHT22;19390;51.460;5.710;2024-02-21T02:24:32;8.80;99.90
33023;DHT22;19390;51.460;5.710;2024-02-21T02:26:57;8.80;99.90
33023;DHT22;19390;51.460;5.710;2024-02-21T02:29:23;8.80;99.90
33023;DHT22;19390;51.460;5.710;2024-02-21T02:31:49;8.80;99.90
33023;DHT22;19390;51.460;5.710;2024-02-21T02:34:14;8.80;99.90
33023;DHT22;19390;51.460;5.710;2024-02-21T02:36:40;8.80;99.90
33023;DHT22;19390;51.460;5.710;2024-02-21T02:39:06;8.80;99.90
33023;DHT22;19390;51.460;5.710;2024-02-21T02:41:35;8.80;99.90
33023;DHT22;19390;51.460;5.710;2024-02-21T02:44:01;8.80;99.90
33023;DHT22;19390;51.460;5.710;2024-02-21T02:46:26;8.80;99.90
33023;DHT22;19390;51.460;5.710;2024-02-21T02:48:52;8.80;99.90
33023;DHT22;19390;51.460;5.710;2024-02-21T02:51:17;8.80;99.90
33023;DHT22;19390;51.460;5.710;2024-02-21T02:53:43;8.80;99.90
33023;DHT22;19390;51.460;5.710;2024-02-21T02:56:17;8.80;99.90
33023;DHT22;19390;51.460;5.710;2024-02-21T02:58:45;8.80;99.90
33023;DHT22;19390;51.460;5.710;2024-02-21T03:01:11;8.80;99.90
33023;DHT22;19390;51.460;5.710;2024-02-21T03:03:37;8.80;99.90
33023;DHT22;19390;51.460;5.710;2024-02-21T03:06:03;8.80;99.90
33023;DHT22;19390;51.460;5.710;2024-02-21T03:08:29;8.80;99.90
33023;DHT22;19390;51.460;5.710;2024-02-21T03:10:55;8.70;99.90
33023;DHT22;19390;51.460;5.710;2024-02-21T03:13:21;8.70;99.90
33023;DHT22;19390;51.460;5.710;2024-02-21T03:15:46;8.80;99.90
33023;DHT22;19390;51.460;5.710;2024-02-21T03:18:12;8.80;99.90
33023;DHT22;19390;51.460;5.710;2024-02-21T03:20:37;8.70;99.90
33023;DHT22;19390;51.460;5.710;2024-02-21T03:23:03;8.70;99.90
33023;DHT22;19390;51.460;5.710;2024-02-21T03:25:28;8.70;99.90
33023;DHT22;19390;51.460;5.710;2024-02-21T03:27:54;8.70;99.90
33023;DHT22;19390;51.460;5.710;2024-02-21T03:30:19;8.70;99.90
33023;DHT22;19390;51.460;5.710;2024-02-21T03:32:46;8.70;99.90
33023;DHT22;19390;51.460;5.710;2024-02-21T03:35:11;8.80;99.90
33023;DHT22;19390;51.460;5.710;2024-02-21T03:37:37;8.80;99.90
33023;DHT22;19390;51.460;5.710;2024-02-21T03:40:05;8.70;99.90
33023;DHT22;19390;51.460;5.710;2024-02-21T03:42:32;8.80;99.90
33023;DHT22;19390;51.460;5.710;2024-02-21T03:44:57;8.80;99.90
33023;DHT22;19390;51.460;5.710;2024-02-21T03:47:23;8.70;99.90
33023;DHT22;19390;51.460;5.710;2024-02-21T03:49:49;8.70;99.90
33023;DHT22;19390;51.460;5.710;2024-02-21T03:52:15;8.70;99.90
33023;DHT22;19390;51.460;5.710;2024-02-21T03:54:41;8.70;99.90
33023;DHT22;19390;51.460;5.710;2024-02-21T03:57:07;8.70;99.90
33023;DHT22;19390;51.460;5.710;2024-02-21T03:59:32;8.70;99.90
33023;DHT22;19390;51.460;5.710;2024-02-21T04:01:58;8.70;99.90
33023;DHT22;19390;51.460;5.710;2024-02-21T04:04:24;8.70;99.90
33023;DHT22;19390;51.460;5.710;2024-02-21T04:06:51;8.70;99.90
33023;DHT22;19390;51.460;5.710;2024-02-21T04:09:17;8.60;99.90
33023;DHT22;19390;51.460;5.710;2024-02-21T04:11:43;8.70;99.90
33023;DHT22;19390;51.460;5.710;2024-02-21T04:14:08;8.70;99.90
33023;DHT22;19390;51.460;5.710;2024-02-21T04:16:34;8.70;99.90
33023;DHT22;19390;51.460;5.710;2024-02-21T04:19:00;8.70;99.90
33023;DHT22;19390;51.460;5.710;2024-02-21T04:21:27;8.60;99.90
33023;DHT22;19390;51.460;5.710;2024-02-21T04:23:53;8.70;99.90
33023;DHT22;19390;51.460;5.710;2024-02-21T04:26:18;8.70;99.90
33023;DHT22;19390;51.460;5.710;2024-02-21T04:28:45;8.60;99.90
33023;DHT22;19390;51.460;5.710;2024-02-21T04:31:11;8.70;99.90
33023;DHT22;19390;51.460;5.710;2024-02-21T04:33:37;8.70;99.90
33023;DHT22;19390;51.460;5.710;2024-02-21T04:36:02;8.60;99.90
33023;DHT22;19390;51.460;5.710;2024-02-21T04:38:28;8.60;99.90
33023;DHT22;19390;51.460;5.710;2024-02-21T04:40:55;8.50;99.90
33023;DHT22;19390;51.460;5.710;2024-02-21T04:43:21;8.60;99.90
33023;DHT22;19390;51.460;5.710;2024-02-21T04:45:46;8.50;99.90
33023;DHT22;19390;51.460;5.710;2024-02-21T04:48:12;8.50;99.90
33023;DHT22;19390;51.460;5.710;2024-02-21T04:50:37;8.50;99.90
33023;DHT22;19390;51.460;5.710;2024-02-21T04:53:03;8.50;99.90
33023;DHT22;19390;51.460;5.710;2024-02-21T04:55:28;8.60;99.90
33023;DHT22;19390;51.460;5.710;2024-02-21T04:57:54;8.50;99.90
33023;DHT22;19390;51.460;5.710;2024-02-21T05:00:20;8.50;99.90
33023;DHT22;19390;51.460;5.710;2024-02-21T05:02:45;8.50;99.90
33023;DHT22;19390;51.460;5.710;2024-02-21T05:05:11;8.50;99.90
33023;DHT22;19390;51.460;5.710;2024-02-21T05:07:36;8.50;99.90
33023;DHT22;19390;51.460;5.710;2024-02-21T05:10:02;8.50;99.90
33023;DHT22;19390;51.460;5.710;2024-02-21T05:12:28;8.50;99.90
33023;DHT22;19390;51.460;5.710;2024-02-21T05:14:55;8.50;99.90
33023;DHT22;19390;51.460;5.710;2024-02-21T05:17:20;8.60;99.90
33023;DHT22;19390;51.460;5.710;2024-02-21T05:19:46;8.60;99.90
33023;DHT22;19390;51.460;5.710;2024-02-21T05:22:11;8.60;99.90
33023;DHT22;19390;51.460;5.710;2024-02-21T05:24:39;8.50;99.90
33023;DHT22;19390;51.460;5.710;2024-02-21T05:27:05;8.50;99.90
33023;DHT22;19390;51.460;5.710;2024-02-21T05:29:30;8.50;99.90
33023;DHT22;19390;51.460;5.710;2024-02-21T05:31:56;8.60;99.90
33023;DHT22;19390;51.460;5.710;2024-02-21T05:34:25;8.60;99.90
33023;DHT22;19390;51.460;5.710;2024-02-21T05:36:52;8.60;99.90
33023;DHT22;19390;51.460;5.710;2024-02-21T05:39:18;8.60;99.90
33023;DHT22;19390;51.460;5.710;2024-02-21T05:41:43;8.60;99.90
33023;DHT22;19390;51.460;5.710;2024-02-21T05:44:09;8.60;99.90
33023;DHT22;19390;51.460;5.710;2024-02-21T05:46:34;8.60;99.90
33023;DHT22;19390;51.460;5.710;2024-02-21T05:49:00;8.60;99.90
33023;DHT22;19390;51.460;5.710;2024-02-21T05:51:26;8.60;99.90
33023;DHT22;19390;51.460;5.710;2024-02-21T05:53:52;8.60;99.90
33023;DHT22;19390;51.460;5.710;2024-02-21T05:56:17;8.60;99.90
33023;DHT22;19390;51.460;5.710;2024-02-21T05:58:43;8.60;99.90
33023;DHT22;19390;51.460;5.710;2024-02-21T06:01:09;8.60;99.90
33023;DHT22;19390;51.460;5.710;2024-02-21T06:03:35;8.60;99.90
33023;DHT22;19390;51.460;5.710;2024-02-21T06:06:01;8.50;99.90
33023;DHT22;19390;51.460;5.710;2024-02-21T06:08:27;8.40;99.90
33023;DHT22;19390;51.460;5.710;2024-02-21T06:10:53;8.30;99.90
33023;DHT22;19390;51.460;5.710;2024-02-21T06:13:20;8.20;99.90
33023;DHT22;19390;51.460;5.710;2024-02-21T06:15:47;8.30;99.90
33023;DHT22;19390;51.460;5.710;2024-02-21T06:18:12;8.30;99.90
33023;DHT22;19390;51.460;5.710;2024-02-21T06:20:38;8.20;99.90
33023;DHT22;19390;51.460;5.710;2024-02-21T06:23:06;8.20;99.90
33023;DHT22;19390;51.460;5.710;2024-02-21T06:25:31;8.20;99.90
33023;DHT22;19390;51.460;5.710;2024-02-21T06:27:57;8.10;99.90
33023;DHT22;19390;51.460;5.710;2024-02-21T06:30:22;8.30;99.90
33023;DHT22;19390;51.460;5.710;2024-02-21T06:32:48;8.30;99.90
33023;DHT22;19390;51.460;5.710;2024-02-21T06:35:14;8.20;99.90
33023;DHT22;19390;51.460;5.710;2024-02-21T06:37:39;8.30;99.90
33023;DHT22;19390;51.460;5.710;2024-02-21T06:40:05;8.20;99.90
33023;DHT22;19390;51.460;5.710;2024-02-21T06:42:31;8.20;99.90
33023;DHT22;19390;51.460;5.710;2024-02-21T06:44:57;8.20;99.90
33023;DHT22;19390;51.460;5.710;2024-02-21T06:47:22;8.20;99.90
33023;DHT22;19390;51.460;5.710;2024-02-21T06:49:49;8.20;99.90
33023;DHT22;19390;51.460;5.710;2024-02-21T06:52:17;8.20;99.90
33023;DHT22;19390;51.460;5.710;2024-02-21T06:54:46;8.20;99.90
33023;DHT22;19390;51.460;5.710;2024-02-21T06:57:12;8.30;99.90
33023;DHT22;19390;51.460;5.710;2024-02-21T06:59:39;8.30;99.90
33023;DHT22;19390;51.460;5.710;2024-02-21T07:02:05;8.20;99.90
33023;DHT22;19390;51.460;5.710;2024-02-21T07:04:31;8.30;99.90
33023;DHT22;19390;51.460;5.710;2024-02-21T07:06:56;8.30;99.90
33023;DHT22;19390;51.460;5.710;2024-02-21T07:09:22;8.40;99.90
33023;DHT22;19390;51.460;5.710;2024-02-21T07:11:47;8.30;99.90
33023;DHT22;19390;51.460;5.710;2024-02-21T07:14:14;8.30;99.90
33023;DHT22;19390;51.460;5.710;2024-02-21T07:16:41;8.40;99.90
33023;DHT22;19390;51.460;5.710;2024-02-21T07:19:06;8.40;99.90
33023;DHT22;19390;51.460;5.710;2024-02-21T07:21:32;8.40;99.90
33023;DHT22;19390;51.460;5.710;2024-02-21T07:23:58;8.40;99.90
33023;DHT22;19390;51.460;5.710;2024-02-21T07:26:23;8.40;99.90
33023;DHT22;19390;51.460;5.710;2024-02-21T07:28:49;8.40;99.90
33023;DHT22;19390;51.460;5.710;2024-02-21T07:31:15;8.30;99.90
33023;DHT22;19390;51.460;5.710;2024-02-21T07:33:40;8.30;99.90
33023;DHT22;19390;51.460;5.710;2024-02-21T07:36:07;8.30;99.90
33023;DHT22;19390;51.460;5.710;2024-02-21T07:38:34;8.30;99.90
33023;DHT22;19390;51.460;5.710;2024-02-21T07:40:59;8.40;99.90
33023;DHT22;19390;51.460;5.710;2024-02-21T07:43:25;8.40;99.90
33023;DHT22;19390;51.460;5.710;2024-02-21T07:45:52;8.40;99.90
33023;DHT22;19390;51.460;5.710;2024-02-21T07:48:18;8.40;99.90
33023;DHT22;19390;51.460;5.710;2024-02-21T07:50:44;8.40;99.90
33023;DHT22;19390;51.460;5.710;2024-02-21T07:53:10;8.40;99.90
33023;DHT22;19390;51.460;5.710;2024-02-21T07:55:35;8.50;99.90
33023;DHT22;19390;51.460;5.710;2024-02-21T07:58:01;8.60;99.90
33023;DHT22;19390;51.460;5.710;2024-02-21T08:00:26;8.70;99.90
33023;DHT22;19390;51.460;5.710;2024-02-21T08:02:52;8.70;99.90
33023;DHT22;19390;51.460;5.710;2024-02-21T08:05:18;8.80;99.90
33023;DHT22;19390;51.460;5.710;2024-02-21T08:07:44;8.80;99.90
33023;DHT22;19390;51.460;5.710;2024-02-21T08:10:09;8.80;99.90
33023;DHT22;19390;51.460;5.710;2024-02-21T08:12:35;8.80;99.90
33023;DHT22;19390;51.460;5.710;2024-02-21T08:15:01;8.80;99.90
33023;DHT22;19390;51.460;5.710;2024-02-21T08:17:28;8.80;99.90
33023;DHT22;19390;51.460;5.710;2024-02-21T08:19:54;8.70;99.90
33023;DHT22;19390;51.460;5.710;2024-02-21T08:22:20;8.60;99.90
33023;DHT22;19390;51.460;5.710;2024-02-21T08:24:45;8.50;99.90
33023;DHT22;19390;51.460;5.710;2024-02-21T08:27:11;8.60;99.90
33023;DHT22;19390;51.460;5.710;2024-02-21T08:29:37;8.60;99.90
33023;DHT22;19390;51.460;5.710;2024-02-21T08:32:02;8.60;99.90
33023;DHT22;19390;51.460;5.710;2024-02-21T08:34:28;8.60;99.90
33023;DHT22;19390;51.460;5.710;2024-02-21T08:36:55;8.60;99.90
33023;DHT22;19390;51.460;5.710;2024-02-21T08:39:21;8.60;99.90
33023;DHT22;19390;51.460;5.710;2024-02-21T08:41:46;8.70;99.90
33023;DHT22;19390;51.460;5.710;2024-02-21T08:44:12;8.70;99.90
33023;DHT22;19390;51.460;5.710;2024-02-21T08:46:38;8.80;99.90
33023;DHT22;19390;51.460;5.710;2024-02-21T08:49:06;8.80;99.90
33023;DHT22;19390;51.460;5.710;2024-02-21T08:51:31;8.80;99.90
33023;DHT22;19390;51.460;5.710;2024-02-21T08:53:58;8.80;99.90
33023;DHT22;19390;51.460;5.710;2024-02-21T08:56:24;8.80;99.90
33023;DHT22;19390;51.460;5.710;2024-02-21T08:58:49;8.80;99.90
33023;DHT22;19390;51.460;5.710;2024-02-21T09:01:15;8.70;99.90
33023;DHT22;19390;51.460;5.710;2024-02-21T09:03:41;8.70;99.90
33023;DHT22;19390;51.460;5.710;2024-02-21T09:06:07;8.50;99.90
33023;DHT22;19390;51.460;5.710;2024-02-21T09:08:34;8.50;99.90
33023;DHT22;19390;51.460;5.710;2024-02-21T09:11:00;8.50;99.90
33023;DHT22;19390;51.460;5.710;2024-02-21T09:13:27;8.40;99.90
33023;DHT22;19390;51.460;5.710;2024-02-21T09:15:52;8.40;99.90
33023;DHT22;19390;51.460;5.710;2024-02-21T09:18:18;8.40;99.90
33023;DHT22;19390;51.460;5.710;2024-02-21T09:20:44;8.40;99.90
33023;DHT22;19390;51.460;5.710;2024-02-21T09:23:10;8.40;99.90
33023;DHT22;19390;51.460;5.710;2024-02-21T09:25:35;8.40;99.90
33023;DHT22;19390;51.460;5.710;2024-02-21T09:28:02;8.40;99.90
33023;DHT22;19390;51.460;5.710;2024-02-21T09:30:28;8.40;99.90
33023;DHT22;19390;51.460;5.710;2024-02-21T09:32:54;8.40;99.90
33023;DHT22;19390;51.460;5.710;2024-02-21T09:35:19;8.40;99.90
33023;DHT22;19390;51.460;5.710;2024-02-21T09:37:48;8.50;99.90
33023;DHT22;19390;51.460;5.710;2024-02-21T09:40:15;8.50;99.90
33023;DHT22;19390;51.460;5.710;2024-02-21T09:42:42;8.50;99.90
33023;DHT22;19390;51.460;5.710;2024-02-21T09:45:22;8.60;99.90
33023;DHT22;19390;51.460;5.710;2024-02-21T09:48:19;8.60;99.90
33023;DHT22;19390;51.460;5.710;2024-02-21T09:50:47;8.60;99.90
33023;DHT22;19390;51.460;5.710;2024-02-21T09:53:14;8.60;99.90
33023;DHT22;19390;51.460;5.710;2024-02-21T09:55:40;8.60;99.90
33023;DHT22;19390;51.460;5.710;2024-02-21T09:58:10;8.70;99.90
33023;DHT22;19390;51.460;5.710;2024-02-21T10:00:36;8.70;99.90
33023;DHT22;19390;51.460;5.710;2024-02-21T10:03:03;8.70;99.90
33023;DHT22;19390;51.460;5.710;2024-02-21T10:05:35;8.80;99.90
33023;DHT22;19390;51.460;5.710;2024-02-21T10:08:01;8.80;99.90
33023;DHT22;19390;51.460;5.710;2024-02-21T10:10:27;8.90;99.90
33023;DHT22;19390;51.460;5.710;2024-02-21T10:12:55;8.90;99.90
33023;DHT22;19390;51.460;5.710;2024-02-21T10:15:22;9.00;99.90
33023;DHT22;19390;51.460;5.710;2024-02-21T10:17:59;9.00;99.90
33023;DHT22;19390;51.460;5.710;2024-02-21T10:20:25;9.00;99.90
33023;DHT22;19390;51.460;5.710;2024-02-21T10:23:01;9.00;99.90
33023;DHT22;19390;51.460;5.710;2024-02-21T10:25:28;9.20;99.90
33023;DHT22;19390;51.460;5.710;2024-02-21T10:27:53;9.30;99.90
33023;DHT22;19390;51.460;5.710;2024-02-21T10:30:19;9.40;99.90
33023;DHT22;19390;51.460;5.710;2024-02-21T10:32:53;9.60;99.90
33023;DHT22;19390;51.460;5.710;2024-02-21T10:35:32;9.70;99.90
33023;DHT22;19390;51.460;5.710;2024-02-21T10:37:59;9.60;99.90
33023;DHT22;19390;51.460;5.710;2024-02-21T10:40:29;9.60;99.90
33023;DHT22;19390;51.460;5.710;2024-02-21T10:43:02;9.70;99.90
33023;DHT22;19390;51.460;5.710;2024-02-21T10:45:30;9.70;99.90
33023;DHT22;19390;51.460;5.710;2024-02-21T10:48:06;9.70;99.90
33023;DHT22;19390;51.460;5.710;2024-02-21T10:50:41;9.70;99.90
33023;DHT22;19390;51.460;5.710;2024-02-21T10:56:28;9.80;99.90
33023;DHT22;19390;51.460;5.710;2024-02-21T10:58:54;9.70;99.90
33023;DHT22;19390;51.460;5.710;2024-02-21T11:01:22;9.70;99.90
33023;DHT22;19390;51.460;5.710;2024-02-21T11:03:51;9.70;99.90
33023;DHT22;19390;51.460;5.710;2024-02-21T11:06:19;9.70;99.90
33023;DHT22;19390;51.460;5.710;2024-02-21T11:08:45;9.70;99.90
33023;DHT22;19390;51.460;5.710;2024-02-21T11:11:13;9.80;99.90
33023;DHT22;19390;51.460;5.710;2024-02-21T11:13:43;9.80;99.90
33023;DHT22;19390;51.460;5.710;2024-02-21T11:16:21;9.80;99.90
33023;DHT22;19390;51.460;5.710;2024-02-21T11:18:47;9.90;99.90
33023;DHT22;19390;51.460;5.710;2024-02-21T11:21:13;9.80;99.90
33023;DHT22;19390;51.460;5.710;2024-02-21T11:23:38;9.80;99.90
33023;DHT22;19390;51.460;5.710;2024-02-21T11:26:18;9.80;99.90
33023;DHT22;19390;51.460;5.710;2024-02-21T11:28:57;9.90;99.90
33023;DHT22;19390;51.460;5.710;2024-02-21T11:31:22;10.00;99.90
33023;DHT22;19390;51.460;5.710;2024-02-21T11:33:48;10.10;99.90
33023;DHT22;19390;51.460;5.710;2024-02-21T11:36:25;10.20;99.90
33023;DHT22;19390;51.460;5.710;2024-02-21T11:38:52;10.20;99.90
33023;DHT22;19390;51.460;5.710;2024-02-21T11:41:18;10.20;99.90
33023;DHT22;19390;51.460;5.710;2024-02-21T11:43:44;10.30;99.90
33023;DHT22;19390;51.460;5.710;2024-02-21T11:46:09;10.30;99.90
33023;DHT22;19390;51.460;5.710;2024-02-21T11:48:35;10.40;99.90
33023;DHT22;19390;51.460;5.710;2024-02-21T11:51:01;10.70;99.90
33023;DHT22;19390;51.460;5.710;2024-02-21T11:53:29;11.00;99.90
33023;DHT22;19390;51.460;5.710;2024-02-21T11:55:56;11.30;99.90
33023;DHT22;19390;51.460;5.710;2024-02-21T11:58:22;11.60;99.90
33023;DHT22;19390;51.460;5.710;2024-02-21T12:00:48;11.90;99.90
33023;DHT22;19390;51.460;5.710;2024-02-21T12:03:14;11.60;99.90
33023;DHT22;19390;51.460;5.710;2024-02-21T12:05:41;11.20;99.90
33023;DHT22;19390;51.460;5.710;2024-02-21T12:08:07;10.70;99.90
33023;DHT22;19390;51.460;5.710;2024-02-21T12:10:35;10.60;99.90
33023;DHT22;19390;51.460;5.710;2024-02-21T12:13:10;10.70;99.90
33023;DHT22;19390;51.460;5.710;2024-02-21T12:15:36;10.80;99.90
33023;DHT22;19390;51.460;5.710;2024-02-21T12:18:02;10.90;99.90
33023;DHT22;19390;51.460;5.710;2024-02-21T12:20:27;11.00;99.90
33023;DHT22;19390;51.460;5.710;2024-02-21T12:22:53;11.20;99.90
33023;DHT22;19390;51.460;5.710;2024-02-21T12:25:21;11.40;99.90
33023;DHT22;19390;51.460;5.710;2024-02-21T12:27:48;11.20;99.90
33023;DHT22;19390;51.460;5.710;2024-02-21T12:30:15;11.30;99.90
33023;DHT22;19390;51.460;5.710;2024-02-21T12:32:40;11.40;99.90
33023;DHT22;19390;51.460;5.710;2024-02-21T12:35:07;11.40;99.90
33023;DHT22;19390;51.460;5.710;2024-02-21T12:37:32;11.60;99.90
33023;DHT22;19390;51.460;5.710;2024-02-21T12:39:58;11.40;99.90
33023;DHT22;19390;51.460;5.710;2024-02-21T12:42:24;11.40;99.90
33023;DHT22;19390;51.460;5.710;2024-02-21T12:44:51;11.40;99.90
33023;DHT22;19390;51.460;5.710;2024-02-21T12:47:18;11.40;99.90
33023;DHT22;19390;51.460;5.710;2024-02-21T12:49:45;11.20;99.90
33023;DHT22;19390;51.460;5.710;2024-02-21T12:52:11;11.30;99.90
33023;DHT22;19390;51.460;5.710;2024-02-21T12:54:36;11.20;99.90
33023;DHT22;19390;51.460;5.710;2024-02-21T12:57:02;11.20;99.90
33023;DHT22;19390;51.460;5.710;2024-02-21T12:59:29;11.10;99.90
33023;DHT22;19390;51.460;5.710;2024-02-21T13:01:55;11.00;99.90
33023;DHT22;19390;51.460;5.710;2024-02-21T13:04:20;11.10;99.90
33023;DHT22;19390;51.460;5.710;2024-02-21T13:06:48;11.10;99.90
33023;DHT22;19390;51.460;5.710;2024-02-21T13:09:13;11.10;99.90
33023;DHT22;19390;51.460;5.710;2024-02-21T13:11:39;11.10;99.90
33023;DHT22;19390;51.460;5.710;2024-02-21T13:14:06;11.00;99.90
33023;DHT22;19390;51.460;5.710;2024-02-21T13:16:31;11.00;99.90
33023;DHT22;19390;51.460;5.710;2024-02-21T13:18:59;11.00;99.90
33023;DHT22;19390;51.460;5.710;2024-02-21T13:21:25;11.00;99.90
33023;DHT22;19390;51.460;5.710;2024-02-21T13:23:51;10.90;99.90
33023;DHT22;19390;51.460;5.710;2024-02-21T13:26:16;11.00;99.90
33023;DHT22;19390;51.460;5.710;2024-02-21T13:28:42;10.90;99.90
33023;DHT22;19390;51.460;5.710;2024-02-21T13:31:10;10.90;99.90
33023;DHT22;19390;51.460;5.710;2024-02-21T13:33:35;10.90;1.00
33023;DHT22;19390;51.460;5.710;2024-02-21T13:36:02;10.90;1.00
33023;DHT22;19390;51.460;5.710;2024-02-21T13:38:28;10.90;1.00
33023;DHT22;19390;51.460;5.710;2024-02-21T13:40:54;10.80;1.00
33023;DHT22;19390;51.460;5.710;2024-02-21T13:43:20;10.80;1.00
33023;DHT22;19390;51.460;5.710;2024-02-21T13:45:56;10.80;1.00
33023;DHT22;19390;51.460;5.710;2024-02-21T13:48:22;10.80;1.00
33023;DHT22;19390;51.460;5.710;2024-02-21T13:50:48;10.80;1.00
33023;DHT22;19390;51.460;5.710;2024-02-21T13:53:14;10.90;1.00
33023;DHT22;19390;51.460;5.710;2024-02-21T13:55:39;10.90;1.00
33023;DHT22;19390;51.460;5.710;2024-02-21T13:58:06;11.00;1.00
33023;DHT22;19390;51.460;5.710;2024-02-21T14:00:31;11.00;1.00
33023;DHT22;19390;51.460;5.710;2024-02-21T14:03:00;10.90;1.00
33023;DHT22;19390;51.460;5.710;2024-02-21T14:05:26;10.90;1.00
33023;DHT22;19390;51.460;5.710;2024-02-21T14:07:52;10.90;1.00
33023;DHT22;19390;51.460;5.710;2024-02-21T14:10:20;10.80;99.90
33023;DHT22;19390;51.460;5.710;2024-02-21T14:12:45;10.80;99.90
33023;DHT22;19390;51.460;5.710;2024-02-21T14:15:13;10.80;1.00
33023;DHT22;19390;51.460;5.710;2024-02-21T14:17:39;10.80;99.90
33023;DHT22;19390;51.460;5.710;2024-02-21T14:20:05;10.80;99.90
33023;DHT22;19390;51.460;5.710;2024-02-21T14:22:31;10.70;99.90
33023;DHT22;19390;51.460;5.710;2024-02-21T14:24:56;10.50;99.90
33023;DHT22;19390;51.460;5.710;2024-02-21T14:27:22;10.40;99.90
33023;DHT22;19390;51.460;5.710;2024-02-21T14:29:48;10.40;99.90
33023;DHT22;19390;51.460;5.710;2024-02-21T14:32:13;10.40;99.90
33023;DHT22;19390;51.460;5.710;2024-02-21T14:34:39;10.50;99.90
33023;DHT22;19390;51.460;5.710;2024-02-21T14:37:05;10.50;99.90
33023;DHT22;19390;51.460;5.710;2024-02-21T14:39:30;10.60;99.90
33023;DHT22;19390;51.460;5.710;2024-02-21T14:41:58;10.60;99.90
33023;DHT22;19390;51.460;5.710;2024-02-21T14:44:25;10.60;99.90
33023;DHT22;19390;51.460;5.710;2024-02-21T14:46:51;10.60;99.90
33023;DHT22;19390;51.460;5.710;2024-02-21T14:49:16;10.50;99.90
33023;DHT22;19390;51.460;5.710;2024-02-21T14:51:42;10.50;99.90
33023;DHT22;19390;51.460;5.710;2024-02-21T14:54:08;10.50;99.90
33023;DHT22;19390;51.460;5.710;2024-02-21T14:56:33;10.50;99.90
33023;DHT22;19390;51.460;5.710;2024-02-21T14:58:59;10.60;99.90
33023;DHT22;19390;51.460;5.710;2024-02-21T15:01:25;10.60;99.90
33023;DHT22;19390;51.460;5.710;2024-02-21T15:03:50;10.60;99.90
33023;DHT22;19390;51.460;5.710;2024-02-21T15:06:16;10.60;99.90
33023;DHT22;19390;51.460;5.710;2024-02-21T15:08:42;10.60;99.90
33023;DHT22;19390;51.460;5.710;2024-02-21T15:11:08;10.60;99.90
33023;DHT22;19390;51.460;5.710;2024-02-21T15:13:34;10.50;99.90
33023;DHT22;19390;51.460;5.710;2024-02-21T15:15:59;10.50;99.90
33023;DHT22;19390;51.460;5.710;2024-02-21T15:18:25;10.40;99.90
33023;DHT22;19390;51.460;5.710;2024-02-21T15:20:51;10.40;99.90
33023;DHT22;19390;51.460;5.710;2024-02-21T15:23:16;10.40;99.90
33023;DHT22;19390;51.460;5.710;2024-02-21T15:25:43;10.40;99.90
33023;DHT22;19390;51.460;5.710;2024-02-21T15:28:09;10.30;99.90
33023;DHT22;19390;51.460;5.710;2024-02-21T15:30:35;10.20;99.90
33023;DHT22;19390;51.460;5.710;2024-02-21T15:33:01;10.00;99.90
33023;DHT22;19390;51.460;5.710;2024-02-21T15:35:28;9.90;99.90
33023;DHT22;19390;51.460;5.710;2024-02-21T15:37:54;9.80;99.90
33023;DHT22;19390;51.460;5.710;2024-02-21T15:40:21;9.80;99.90